Terminal Aerodrome Forecast
Issued by NWS Paducah, KY

Home | Current Version | Previous Version | Text Only | Print | Product List | Glossary On
Versions: 1 2 3 4 5 6 7 8 9 10 11 12 13 14 15
000
FTUS43 KPAH 221700
TAFPAH
TAF
KPAH 221720Z 2218/2318 08003KT P6SM SKC
      TEMPO 2219/2223 24005KT FEW035
     FM222300 25003KT P6SM SKC
     FM231000 24002KT P6SM SCT140
     FM231400 24006KT P6SM FEW050 BKN180=

USA.gov is the U.S. government's official web portal to all federal, state and local government web resources and services.